Dutch
Home     News     Corporate     Events & Tours     Flight ops     Crew centre      
My transavia virtual    Join us    Last logs    Who is flying    Software    Training    VRTS     
 

view flightdata
view flightplan
view OFP
view flightlog



flightdata:
pilot: Mihajlo Radulovic
flight: TRA7724
from: GCTS (Tenerife-South)
to: GCLP (Gran Canaria)
date: 08-05-2020
departure: 13:56z
arrival: 14:28z
duration: 0:32
aircraft: B738 (PHHXC)
distance: 84 NM
touchdown: -188 ft/m @ 132 KIAS



flightplan:
-(FPL-TRA7724-IS
-B738/M-SDEHPRWXY/EHLSB1
-GCTS1406
-N0295F130 LPC DCT
-GCLP0018 GCFV
-PBN/A1B1D1O1S2T1 NAV/RNP2 DOF/200508 REG/PHHXC SEL/GQAP CODE/48520B OPR/TRA PER/C TALT/GCXO RVR/200 RMK/TCAS RMK/ACFT CERTIFIED NOISE STAGE 4 RMK/OCC)



operational flightplan (OFP):
NO LOADSHEET AVAILABLE

WEATHER BRIEFING - GENERATED 08 MAY 2020 13:51 UTC
--------------------------------------------------------------------------------

GCTS GCLP GCFV

--------------------------------------------------------------------------------
ORIGIN: GCTS (TENERIFE-SOUTH)
--------------------------------------------------------------------------------
GCTS 081330Z 18005KT 140V270 9999 BKN033 22/15 Q1019 NOSIG

GCTS 080800Z 0809/0909 15009KT 9999 SCT035 TX24/0812Z TN18/0906Z
      BECMG 0813/0815 09011KT


--------------------------------------------------------------------------------
DESTINATION: GCLP (GRAN CANARIA)
--------------------------------------------------------------------------------
GCLP 081330Z 03023KT 9999 FEW040 23/16 Q1018 NOSIG

GCLP 080800Z 0809/0909 02020KT 9999 SCT030 TX24/0814Z TN18/0906Z=  KHMN 080900Z 0809/0915 34010KT 9999 FEW120 FEW220 QNH2996INS
      TEMPO 0909/0911 34015G25KT
      BECMG 0816/0817 21010G15KT 9999 SCT220 QNH3006INS
      TEMPO 0821/0900 22015G25KT FEW160 SCT220
      BECMG 0823/0824 18015G25KT 9999 FEW140 SCT220 QNH3008INS
      BECMG 0902/0903 15012G20KT 9999 FEW120 SCT220 QNH3010INS
      BECMG 0908/0909 14009KT 9999 FEW120 SCT220 QNH3012INS TX30/0823Z TN13/0812Z


--------------------------------------------------------------------------------
ALTERNATE: GCFV (FUERTEVENTURA)
--------------------------------------------------------------------------------
GCFV 081330Z 07013KT 9999 FEW042 23/16 Q1018

GCFV 080800Z 0809/0909 05014KT 9999 FEW030 TX24/0814Z TN17/0906Z
      BECMG 0819/0821 35009KT


NOTAM BRIEFING - GENERATED 08 MAY 2020 13:51 UTC
--------------------------------------------------------------------------------

GCTS GCLP GCFV

--------------------------------------------------------------------------------
GLOBAL TRANSAVIA.COM VIRTUAL NOTAMS
--------------------------------------------------------------------------------
REF:NIL PLEASE CONTACT OPERATIONS IN CASE OF STRUCTURAL FLIGHTPLAN ERRORS ON FLIGHT-OPS@TRANSAVIA-VIRTUAL.COM
VALID:UFN

REF:NIL
PLEASE CHECK ACARS EVERY 10 MINUTES WHEN FLYING WITH SOUND OFF. AN NEW ACARS MESSAGE PRODUCE A SOUND SIGNAL UNTILL ITS READ. FLOWCONTROL DON'T RECEIVE MUCH REACTION ON OUTGOING ACARS MESSAGES ACCORDING FLIGHTSTATUS.
SOURCE: SPL/HV/OCC/
END VALID: UFN

REF:NIL
PLEASE CONTACT FLOWCONTROL IN CASE OF PROBLEMS WITH ROUTINGS
SOURCE: SPL/HV/OCC/
END VALID: UFN

REF:NIL
IN CASE OF ENGINE-OUT FLY V2 OR V2 20 MAX. UNTIL ABOVE MSA.
LEVEL-OFF AT AN ALTITUDE ROUNDED OFF TO THE FIRST 1000 FT OF THE HIGHEST MSA.
E.G: MSA EHAM; 1.7 AND 2.3 LEVEL-OFF 3000 FT. AFTER LANDING MAKE A REP TO OCC ON 131.975
SOURCE:SPL/HV/OCC
END VALID:UFN



flightlog:
Pilot : Mihajlo Radulovic
Flight: TRA7724
From  : GCTS Tenerife-South
To    : GCLP Gran Canaria

[FLIGHTLOG] 1.5.4
08-05-2020 13:51:31z, logging started
08-05-2020 13:56:00z, parking brake released
08-05-2020 13:58:03z, flaps set to 13%
08-05-2020 13:58:10z, flaps set to 25%
08-05-2020 13:58:15z, flaps set to 38%
08-05-2020 13:58:17z, retracted spoilers
08-05-2020 14:06:31z, pos report: 071 KIAS, 00 217 ft, heading 249, winds 190 @ 05 kts
08-05-2020 14:06:45z, take-off at 137 KIAS
08-05-2020 14:06:45z, pos report: 137 KIAS, 00 223 ft, heading 247, winds 185 @ 05 kts
08-05-2020 14:06:45z, flying online @ VATSIM (TRA7724)
08-05-2020 14:06:45z, position: GCTS - Tenerife-South
08-05-2020 14:06:48z, retracted gear at 147 KIAS and 60 ft AGL
08-05-2020 14:07:53z, flaps set to 25%
08-05-2020 14:07:57z, flaps set to 13%
08-05-2020 14:08:06z, flaps set to 0%
08-05-2020 14:20:29z, below glideslope
08-05-2020 14:21:12z, intercepted localizer
08-05-2020 14:21:15z, on glideslope
08-05-2020 14:21:32z, pos report: 243 KIAS, 03 785 ft, heading 020, winds 020 @ 13 kts
08-05-2020 14:22:13z, flaps set to 13%
08-05-2020 14:22:51z, lowered gear at 216 KIAS and 2175 ft AGL
08-05-2020 14:22:58z, flaps set to 25%
08-05-2020 14:23:12z, flaps set to 38%
08-05-2020 14:23:17z, flaps set to 50%
08-05-2020 14:23:22z, flaps set to 62%
08-05-2020 14:23:29z, flaps set to 75%
08-05-2020 14:23:32z, flaps set to 87%
08-05-2020 14:25:15z, below glideslope
08-05-2020 14:25:20z, on glideslope
08-05-2020 14:25:30z, below glideslope
08-05-2020 14:26:03z, touchdown: -188ft/m at 132 KIAS
08-05-2020 14:26:03z, pos report: 132 KIAS, 00 078 ft, heading 022, winds 030 @ 24 kts
08-05-2020 14:26:03z, flying online @ VATSIM (TRA7724)
08-05-2020 14:26:03z, position: GCLP - Gran Canaria
08-05-2020 14:26:33z, retracted spoilers
08-05-2020 14:26:41z, flaps set to 75%
08-05-2020 14:26:44z, flaps set to 62%
08-05-2020 14:26:47z, flaps set to 50%
08-05-2020 14:26:50z, flaps set to 38%
08-05-2020 14:26:54z, flaps set to 25%
08-05-2020 14:26:59z, flaps set to 13%
08-05-2020 14:27:06z, flaps set to 0%
08-05-2020 14:28:12z, parking brake set
08-05-2020 14:32:42z, logging ended

©2009-2020, transavia virtual. All rights reserved. This website is only meant for simulation purposes.
This website is not owned by transavia, nor is transavia responsible for the content of this website.